Taquarituba, Brazil
Current Conditions -  °F | °C
As of 9:00 AM on Friday 28 Nov 2014 (Local Time) from SBBU Reporting Station
Clear Clear  
Wind Chill: 75°   Ceiling: Unl
Heat Index: 75°   Visibility: 6mi
Dew Point: 66°   Wind: 14mph
Humidity: 73%   Direction: 130°SE
Pressure: 30"   Gusts: NA
Location:  23.52°S, 49.25°W
Report Text: SBBU 281100Z 13012KT CAVOK 24/19 Q1016
Loading
Personal Weather Stations






























Interactive Weather Map New forecast layout! Learn more

10-Day Weather Forecast

Advertisements
Track Severe Weather on mobile